Latest Weather Observations for Warrnambool

IDV60801

Issued at 9:02 am EDT Wednesday 19 December 2018 (issued every 10 minutes, with the page automatically refreshed every 10 minutes)

About weather observations | Map of weather stations | Latest weather observations for VIC | Other Formats
Station Details ID: 090186 Name: WARRNAMBOOL AIRPORT NDB Lat: -38.29 Lon: 142.45 Height: 70.8 m
Data from the previous 72 hours. | See also: Recent months at Warrnambool
Date/Time
EDT
Temp
°C
App
Temp
°C
Dew
Point
°C
Rel
Hum
%
Delta-T
°C
Wind Press
QNH
hPa
Press
MSL
hPa
Rain since
9am
mm
Dir  Spd
km/h
Gust
km/h
Spd
kts
Gust
kts
19/09:00am 17.2 17.0 15.7 91 0.9 NNE 11 15 6 8 1013.5 1013.3 0.0
19/08:30am 15.1 14.4 14.3 95 0.5 ENE 11 15 6 8 1012.7 1012.6 0.0
19/08:00am 14.6 14.2 14.1 97 0.3 E 9 15 5 8 1012.9 1012.7 0.0
19/07:30am 14.2 14.3 13.9 98 0.2 SE 6 7 3 4 1012.9 1012.7 0.0
19/07:00am 14.0 13.5 13.7 98 0.2 SE 9 11 5 6 1012.5 1012.4 0.0
19/06:30am 13.2 12.9 12.7 97 0.3 SE 6 9 3 5 1013.0 1012.8 0.0
19/06:00am 13.7 13.6 13.2 97 0.3 ESE 6 7 3 4 1013.0 1012.8 0.0
19/05:30am 13.8 13.1 13.3 97 0.3 SSE 9 13 5 7 1012.3 1012.2 0.0
19/05:00am 14.1 13.9 13.6 97 0.3 E 7 9 4 5 1012.0 1011.9 0.0
19/04:30am 14.2 13.7 13.7 97 0.3 E 9 13 5 7 1011.6 1011.5 0.0
19/04:00am 14.2 13.3 13.7 97 0.3 E 11 15 6 8 1011.6 1011.5 0.0
19/03:30am 14.2 13.7 13.7 97 0.3 ESE 9 13 5 7 1012.5 1012.4 0.0
19/03:00am 14.3 14.4 13.8 97 0.3 SSE 6 7 3 4 1013.8 1013.6 0.0
19/02:58am 14.3 14.1 13.7 96 0.3 SSE 7 9 4 5 1013.8 1013.6 0.0
19/02:42am 14.5 13.7 13.9 96 0.3 SSW 11 13 6 7 1014.1 1014.0 0.0
19/02:30am 14.5 13.7 13.9 96 0.3 SSW 11 13 6 7 1014.3 1014.2 0.0
19/02:00am 14.7 14.2 13.9 95 0.5 SE 9 9 5 5 1014.1 1014.0 0.0
19/01:30am 14.7 14.5 13.7 94 0.6 ESE 7 9 4 5 1014.5 1014.4 0.0
19/01:00am 14.8 14.9 13.8 94 0.6 SE 6 9 3 5 1014.8 1014.7 0.0
19/12:30am 14.9 14.4 13.8 93 0.6 SSE 9 9 5 5 1015.1 1015.0 0.0
19/12:11am 15.0 14.5 13.9 93 0.6 SE 9 11 5 6 1015.3 1015.2 0.0
19/12:00am 15.0 14.2 13.9 93 0.6 ESE 11 15 6 8 1015.4 1015.3 0.0
 
Date/Time
EDT
Temp
°C
App
Temp
°C
Dew
Point
°C
Rel
Hum
%
Delta-T
°C
Wind Press
QNH
hPa
Press
MSL
hPa
Rain since
9am
mm
Dir  Spd
km/h
Gust
km/h
Spd
kts
Gust
kts
18/11:58pm 14.9 14.0 13.8 93 0.6 ESE 11 15 6 8 1015.5 1015.4 0.0
18/11:30pm 15.0 13.3 13.7 92 0.7 SE 15 20 8 11 1015.5 1015.4 0.0
18/11:00pm 15.0 13.3 13.7 92 0.7 SSE 15 20 8 11 1015.7 1015.6 0.0
18/10:50pm 14.9 13.6 13.6 92 0.7 SSE 13 17 7 9 1015.9 1015.8 0.0
18/10:30pm 14.9 13.5 13.4 91 0.8 SSE 13 19 7 10 1015.9 1015.8 0.0
18/10:00pm 15.1 13.3 13.3 89 1.0 SSE 15 19 8 10 1016.0 1015.9 0.0
18/09:30pm 15.2 13.0 13.2 88 1.1 SSE 17 24 9 13 1016.1 1016.0 0.0
18/09:00pm 15.2 12.4 13.2 88 1.1 SE 20 26 11 14 1015.8 1015.7 0.0
18/08:30pm 15.4 11.1 13.1 86 1.3 SSE 28 35 15 19 1015.2 1015.1 0.0
18/08:00pm 15.8 11.5 13.1 84 1.5 SSE 28 35 15 19 1015.1 1015.0 0.0
18/07:30pm 16.1 12.1 13.0 82 1.7 SSE 26 33 14 18 1015.2 1015.1 0.0
18/07:00pm 16.5 12.1 12.8 79 2.1 SSE 28 33 15 18 1015.4 1015.3 0.0
18/06:30pm 17.7 13.7 13.0 74 2.6 SSE 26 33 14 18 1015.4 1015.3 0.0
18/06:00pm 17.8 14.0 13.7 77 2.3 SSE 26 32 14 17 1015.6 1015.5 0.0
18/05:30pm 18.4 15.2 13.1 71 3.0 SSE 22 30 12 16 1016.0 1015.9 0.0
18/05:00pm 17.6 14.5 13.3 76 2.4 SSE 22 30 12 16 1016.1 1016.0 0.0
18/04:30pm 17.9 13.8 12.8 72 2.9 SSE 26 33 14 18 1015.8 1015.7 0.0
18/04:00pm 18.4 14.5 13.3 72 2.9 SSE 26 35 14 19 1016.1 1016.0 0.0
18/03:30pm 18.9 15.1 13.7 72 3.0 SSE 26 35 14 19 1016.0 1015.9 0.0
18/03:00pm 18.1 14.0 12.8 71 3.0 SSE 26 33 14 18 1016.3 1016.2 0.0
18/02:30pm 19.7 15.9 13.6 68 3.5 SSE 26 35 14 19 1016.7 1016.6 0.0
18/02:00pm 18.4 14.2 12.4 68 3.3 SSE 26 33 14 18 1016.5 1016.4 0.0
18/01:30pm 18.9 15.3 12.9 68 3.4 SSE 24 32 13 17 1016.7 1016.6 0.0
18/01:00pm 18.3 14.8 12.3 68 3.3 SSE 22 37 12 20 1016.7 1016.6 0.0
18/12:30pm 18.9 15.7 13.1 69 3.3 SSE 22 32 12 17 1016.6 1016.5 0.0
18/12:00pm 19.0 16.2 13.2 69 3.3 SSE 20 30 11 16 1017.1 1017.0 0.0
18/11:30am 18.5 15.5 11.8 65 3.7 SSE 19 28 10 15 1017.2 1017.1 0.0
18/11:00am 18.7 16.1 13.1 70 3.2 SSE 19 26 10 14 1017.3 1017.2 0.0
18/10:30am 17.6 14.5 11.6 68 3.3 SSE 19 26 10 14 1017.9 1017.8 0.0
18/10:00am 17.1 14.1 11.8 71 2.9 SSE 19 28 10 15 1017.8 1017.7 0.0
18/09:30am 16.1 13.5 11.9 76 2.3 SSE 17 22 9 12 1018.0 1017.9 0.0
18/09:00am 15.7 13.2 12.3 80 1.9 SSE 17 24 9 13 1018.1 1018.0 0.4
18/08:30am 14.8 11.7 11.6 81 1.7 SSE 19 24 10 13 1018.1 1018.0 0.4
18/08:00am 14.6 12.8 12.1 85 1.4 SE 13 19 7 10 1017.8 1017.7 0.4
18/07:30am 14.2 12.4 12.2 88 1.1 ESE 13 17 7 9 1017.0 1016.9 0.4
18/07:00am 13.6 12.0 11.7 88 1.0 SE 11 15 6 8 1016.6 1016.5 0.4
18/06:30am 13.7 12.6 11.9 89 1.0 SE 9 11 5 6 1016.4 1016.3 0.4
18/06:00am 13.5 12.3 11.7 89 1.0 SSE 9 13 5 7 1016.4 1016.3 0.4
18/05:30am 13.0 12.3 11.4 90 0.8 SSE 6 7 3 4 1015.9 1015.8 0.4
18/05:00am 13.0 12.2 11.2 89 1.0 SE 6 7 3 4 1015.6 1015.5 0.4
18/04:30am 13.4 12.2 11.5 88 1.0 SE 9 11 5 6 1015.3 1015.2 0.4
18/04:00am 13.7 12.6 12.1 90 0.9 SE 9 11 5 6 1015.3 1015.2 0.4
18/03:30am 13.9 13.5 12.5 91 0.8 SE 6 9 3 5 1015.2 1015.1 0.4
18/03:00am 13.9 13.4 12.6 92 0.7 SSE 7 9 4 5 1015.3 1015.2 0.4
18/02:30am 13.5 12.1 12.1 91 0.8 SE 11 17 6 9 1015.5 1015.4 0.4
18/02:00am 13.2 11.9 12.4 95 0.4 E 11 17 6 9 1015.3 1015.2 0.4
18/01:30am 13.3 12.8 12.7 96 0.3 ESE 7 13 4 7 1015.6 1015.5 0.4
18/01:00am 12.5 11.4 11.9 96 0.3 ESE 9 11 5 6 1015.7 1015.6 0.4
18/12:39am 13.3 12.1 12.7 96 0.3 ESE 11 15 6 8 1016.0 1015.9 0.4
18/12:30am 13.6 12.1 13.0 96 0.3 ESE 13 17 7 9 1016.0 1015.9 0.4
18/12:15am 14.1 12.7 13.5 96 0.3 SSE 13 17 7 9 1016.3 1016.2 0.4
18/12:00am 14.0 12.2 13.2 95 0.4 SSE 15 20 8 11 1016.7 1016.6 0.4
 
Date/Time
EDT
Temp
°C
App
Temp
°C
Dew
Point
°C
Rel
Hum
%
Delta-T
°C
Wind Press
QNH
hPa
Press
MSL
hPa
Rain since
9am
mm
Dir  Spd
km/h
Gust
km/h
Spd
kts
Gust
kts
17/11:30pm 13.9 13.2 13.1 95 0.4 SE 9 13 5 7 1016.5 1016.4 0.4
17/11:15pm 13.7 13.5 12.9 95 0.4 ESE 6 9 3 5 1016.6 1016.5 0.4
17/11:00pm 13.8 12.3 13.2 96 0.3 SE 13 17 7 9 1016.6 1016.5 0.4
17/10:39pm 14.0 13.4 13.4 96 0.3 SE 9 11 5 6 1016.5 1016.4 0.4
17/10:30pm 13.9 13.5 13.1 95 0.4 SE 7 11 4 6 1016.5 1016.4 0.4
17/10:00pm 14.0 12.5 13.1 94 0.5 SE 13 19 7 10 1016.2 1016.1 0.4
17/09:59pm 14.0 12.5 13.1 94 0.5 SE 13 19 7 10 1016.1 1016.0 0.4
17/09:56pm 14.1 12.6 13.1 94 0.6 SE 13 19 7 10 1016.0 1015.9 0.4
17/09:43pm 14.3 12.5 13.3 94 0.6 SSE 15 24 8 13 1016.2 1016.1 0.4
17/09:36pm 14.1 13.3 13.0 93 0.6 SSE 9 11 5 6 1016.2 1016.1 0.4
17/09:30pm 13.9 12.7 12.8 93 0.6 SSE 11 17 6 9 1016.1 1016.0 0.4
17/09:22pm 14.0 12.4 12.9 93 0.6 SSE 13 19 7 10 1016.0 1015.9 0.4
17/09:06pm 14.7 12.5 13.4 92 0.7 SSE 17 24 9 13 1015.9 1015.8 0.4
17/09:00pm 14.7 12.5 13.4 92 0.7 SSE 17 20 9 11 1015.9 1015.8 0.4
17/08:30pm 14.7 12.2 13.4 92 0.7 S 19 24 10 13 1016.0 1015.9 0.4
17/08:25pm 14.8 12.6 13.3 91 0.8 SSE 17 22 9 12 1016.1 1016.0 0.4
17/08:00pm 14.9 12.4 13.6 92 0.7 SSE 19 26 10 14 1015.8 1015.7 0.4
17/07:45pm 14.7 12.0 13.6 93 0.6 SSE 20 30 11 16 1015.9 1015.8 0.4
17/07:30pm 14.9 12.2 13.6 92 0.7 S 20 28 11 15 1016.0 1015.9 0.4
17/07:28pm 15.0 12.3 13.5 91 0.8 S 20 28 11 15 1016.0 1015.9 0.4
17/07:00pm 15.6 12.6 13.8 89 1.0 SSW 22 28 12 15 1015.7 1015.6 0.4
17/06:30pm 15.6 12.9 13.6 88 1.1 S 20 26 11 14 1015.6 1015.5 0.4
17/06:00pm 16.7 14.0 13.0 79 2.1 SSW 19 22 10 12 1015.3 1015.2 0.4
17/05:30pm 16.5 13.7 13.2 81 1.9 SSW 20 30 11 16 1015.2 1015.1 0.4
17/05:24pm 16.7 13.6 13.4 81 1.9 SSW 22 30 12 16 1015.1 1015.0 0.4
17/05:00pm 17.6 14.9 13.5 77 2.3 SSW 20 26 11 14 1014.9 1014.8 0.4
17/04:30pm 17.7 14.5 13.0 74 2.6 S 22 28 12 15 1015.1 1015.0 0.4
17/04:00pm 17.6 14.4 13.1 75 2.5 S 22 30 12 16 1014.9 1014.8 0.4
17/03:30pm 18.7 15.5 14.2 75 2.6 S 24 30 13 16 1014.8 1014.7 0.4
17/03:09pm 17.8 14.7 13.5 76 2.4 S 22 30 12 16 1014.7 1014.6 0.4
17/03:00pm 18.0 14.5 13.5 75 2.6 S 24 32 13 17 1014.7 1014.6 0.4
17/02:30pm 18.0 15.0 14.7 81 1.9 S 24 33 13 18 1014.6 1014.5 0.4
17/02:00pm 17.5 14.4 14.4 82 1.8 S 24 37 13 20 1014.6 1014.5 0.4
17/01:30pm 16.8 12.7 13.9 83 1.6 S 28 35 15 19 1014.5 1014.4 0.4
17/01:00pm 16.8 13.2 14.3 85 1.4 SSW 26 32 14 17 1014.5 1014.4 0.4
17/12:42pm 16.0 12.4 14.2 89 1.0 SSW 26 33 14 18 1014.0 1013.9 0.4
17/12:30pm 15.6 12.1 14.6 94 0.6 S 26 33 14 18 1014.0 1013.9 0.4
17/12:00pm 16.0 12.8 15.2 95 0.5 S 26 33 14 18 1013.9 1013.7 0.4
17/11:30am 16.1 12.9 15.3 95 0.5 SSW 26 33 14 18 1013.9 1013.7 0.4
17/11:17am 15.9 12.5 14.8 93 0.6 SSW 26 32 14 17 1014.1 1014.0 0.4
17/11:00am 16.2 12.9 14.9 92 0.8 SSW 26 32 14 17 1013.9 1013.7 0.4
17/10:30am 16.0 13.0 14.7 92 0.7 SSW 24 30 13 16 1013.8 1013.6 0.4
17/10:00am 16.0 13.6 15.5 97 0.3 SSW 22 28 12 15 1013.6 1013.4 0.4
17/09:54am 15.7 13.2 15.2 97 0.3 SSW 22 28 12 15 1013.6 1013.4 0.4
17/09:40am 15.6 13.2 15.4 99 0.1 SSW 22 30 12 16 1013.5 1013.3 0.4
17/09:38am 15.7 13.0 15.5 99 0.1 SSW 24 32 13 17 1013.4 1013.2 0.4
17/09:30am 15.1 12.1 14.9 99 0.1 SSW 24 32 13 17 1013.4 1013.2 0.4
17/09:00am 15.7 13.0 15.7 100 0.0 SSW 24 30 13 16 1013.0 1012.8 1.8
17/08:30am 15.3 13.2 15.3 100 0.0 SSW 20 26 11 14 1012.6 1012.5 1.8
17/08:00am 14.9 12.9 14.9 100 0.0 SSW 19 24 10 13 1012.4 1012.3 1.8
17/07:30am 14.7 13.0 14.7 100 0.0 SW 17 26 9 14 1011.9 1011.8 1.6
17/07:00am 14.6 12.5 14.6 100 0.0 SSW 19 24 10 13 1011.6 1011.5 1.4
17/06:38am 14.6 12.9 14.6 100 0.0 SW 17 24 9 13 1011.2 1011.1 1.4
17/06:36am 14.7 13.0 14.7 100 0.0 SW 17 22 9 12 1011.1 1011.0 1.2
17/06:30am 14.6 13.2 14.6 100 0.0 SW 15 20 8 11 1011.0 1010.9 1.2
17/06:16am 14.6 13.6 14.6 100 0.0 SW 13 17 7 9 1010.7 1010.6 1.2
17/06:09am 14.5 13.1 14.5 100 0.0 SW 15 20 8 11 1010.6 1010.5 1.0
17/06:00am 14.3 12.8 14.3 100 0.0 SW 15 20 8 11 1010.5 1010.4 1.0
17/05:33am 14.5 12.3 14.5 100 0.0 SW 19 28 10 15 1010.4 1010.3 0.8
17/05:30am 14.5 12.7 14.5 100 0.0 SW 17 20 9 11 1010.3 1010.2 0.8
17/05:25am 14.6 12.9 14.6 100 0.0 SW 17 20 9 11 1010.3 1010.2 0.8
17/05:00am 14.5 13.1 14.5 100 0.0 WSW 15 20 8 11 1009.9 1009.8 0.8
17/04:32am 14.6 12.3 14.6 100 0.0 SW 20 28 11 15 1009.7 1009.6 0.8
17/04:30am 14.5 12.3 14.5 100 0.0 SW 19 28 10 15 1009.7 1009.6 0.8
17/04:00am 14.6 12.3 14.6 100 0.0 SW 20 30 11 16 1009.6 1009.5 0.6
17/03:30am 14.8 12.5 14.6 99 0.1 SW 20 28 11 15 1009.4 1009.3 0.4
17/03:00am 15.0 12.8 14.8 99 0.1 SW 20 26 11 14 1009.3 1009.2 0.2
17/02:30am 15.3 13.1 15.0 98 0.2 SW 20 26 11 14 1009.3 1009.2 0.2
17/02:00am 15.8 14.7 15.3 97 0.3 W 15 20 8 11 1009.3 1009.2 0.2
17/01:45am 15.8 15.8 15.2 96 0.3 NW 9 13 5 7 1009.4 1009.3 0.2
17/01:30am 15.7 15.6 14.9 95 0.5 NW 9 13 5 7 1009.5 1009.4 0.2
17/01:00am 15.7 15.5 14.6 93 0.6 NW 9 13 5 7 1009.5 1009.4 0.2
17/12:30am 15.7 15.3 14.2 91 0.9 WNW 9 13 5 7 1009.7 1009.6 0.2
17/12:00am 15.7 15.3 14.1 90 0.9 W 9 13 5 7 1009.7 1009.6 0.2
 
Date/Time
EDT
Temp
°C
App
Temp
°C
Dew
Point
°C
Rel
Hum
%
Delta-T
°C
Wind Press
QNH
hPa
Press
MSL
hPa
Rain since
9am
mm
Dir  Spd
km/h
Gust
km/h
Spd
kts
Gust
kts
16/11:30pm 15.4 14.1 13.8 90 0.9 W 13 19 7 10 1009.6 1009.5 0.2
16/11:00pm 15.6 14.6 14.6 94 0.6 WSW 13 19 7 10 1009.3 1009.2 0.2
16/10:30pm 15.5 15.4 14.9 96 0.3 WSW 9 13 5 7 1009.1 1009.0 0.2
16/10:02pm 15.2 14.6 14.6 96 0.3 W 11 17 6 9 1008.9 1008.8 0.2
16/10:00pm 15.1 14.1 14.5 96 0.3 W 13 17 7 9 1009.0 1008.9 0.2
16/09:30pm 14.5 13.2 13.7 95 0.4 WSW 13 17 7 9 1008.5 1008.4 0.2
16/09:00pm 14.8 13.8 13.5 92 0.7 SW 11 13 6 7 1007.8 1007.7 0.2
16/08:30pm 16.1 14.5 13.9 87 1.2 SSW 15 17 8 9 1007.7 1007.6 0.2
16/08:00pm 17.4 16.2 13.9 80 2.0 S 13 19 7 10 1007.6 1007.5 0.2
16/07:36pm 17.1 15.5 15.1 88 1.2 SSE 17 20 9 11 1007.1 1007.0 0.2
16/07:30pm 16.8 15.2 15.0 89 1.0 SSE 17 20 9 11 1007.0 1006.9 0.2
16/07:00pm 16.6 13.3 15.0 90 0.9 SSW 26 32 14 17 1006.9 1006.8 0.2
16/06:30pm 17.6 14.9 15.6 88 1.2 SSW 24 33 13 18 1006.4 1006.3 0.2
16/06:25pm 17.8 14.4 15.8 88 1.2 SSW 28 33 15 18 1006.4 1006.3 0.2
16/06:00pm 20.9 16.8 13.8 64 4.1 SSW 28 37 15 20 1005.9 1005.8 0.2
16/05:30pm 21.6 17.3 11.9 54 5.5 SSW 26 35 14 19 1005.7 1005.6 0.2
16/05:00pm 22.9 19.3 11.9 50 6.2 SSW 22 28 12 15 1005.4 1005.3 0.2
16/04:30pm 23.7 22.4 13.8 53 5.8 S 13 20 7 11 1004.9 1004.8 0.2
16/04:00pm 23.0 20.6 12.6 52 6.0 S 17 20 9 11 1004.8 1004.7 0.2
16/03:30pm 23.1 21.8 14.7 59 5.0 SSW 15 20 8 11 1004.9 1004.8 0.2
16/03:00pm 21.7 19.2 13.6 60 4.7 SSW 19 24 10 13 1005.0 1004.9 0.2
16/02:30pm 21.2 18.3 12.9 59 4.7 SSW 20 26 11 14 1005.3 1005.2 0.2
16/02:00pm 21.9 19.5 14.3 62 4.5 SSW 20 26 11 14 1005.1 1005.0 0.2
16/01:30pm 21.7 20.1 15.1 66 3.9 S 17 24 9 13 1005.3 1005.2 0.2
16/01:00pm 21.0 18.6 14.4 66 3.9 SSW 20 28 11 15 1005.7 1005.6 0.0
16/12:30pm 20.5 18.4 14.6 69 3.5 SW 19 24 10 13 1005.8 1005.7 0.0
16/12:00pm 19.5 17.5 13.9 70 3.2 SW 17 24 9 13 1005.7 1005.6 0.0
16/11:30am 20.2 19.0 14.1 68 3.5 WNW 13 22 7 12 1005.7 1005.6 0.0
16/11:00am 19.8 18.3 14.2 70 3.3 WNW 15 22 8 12 1005.7 1005.6 0.0
16/10:30am 20.0 19.1 13.7 67 3.6 WNW 11 17 6 9 1005.7 1005.6 0.0
16/10:00am 18.8 17.5 13.6 72 3.0 NW 13 17 7 9 1005.6 1005.5 0.0
16/09:30am 17.5 16.2 13.6 78 2.2 WNW 13 19 7 10 1005.6 1005.5 0.0

Other Formats:

Comma delimited format used in spreadsheet applications
http://www.bom.gov.au/fwo/IDV60801/IDV60801.94837.axf

JavaScript Object Notation format (JSON) in row-major order
http://www.bom.gov.au/fwo/IDV60801/IDV60801.94837.json